KBPI/BPI METAR and TAF weather

Enter ICAO airport designator
Station Type Date Time Source
KBPI METAR 2019/06/16 06:53 UTC NOAA

KBPI 160653Z AUTO 02005KT 10SM CLR 09/05 A3014 RMK AO2 SLP116 T00940050 402440033 TSNO


Station Type Date Time Source
KBPI Decoded METAR 2019/06/16 06:53 UTC NOAA

BIG PINEY-MARBLETON AIRPORT, WY, United States (KBPI) 42-35N 110-06W 2117M
Jun 16, 2019 - 02:53 AM EDT / 2019.06.16 0653 UTC
Wind: from the NNE (020 degrees) at 6 MPH (5 KT):0
Visibility: 10 mile(s):0
Sky conditions: clear
Temperature: 48.9 F (9.4 C)
Dew Point: 41.0 F (5.0 C)
Relative Humidity: 73%
Pressure (altimeter): 30.14 in. Hg (1020 hPa)
ob: KBPI 160653Z AUTO 02005KT 10SM CLR 09/05 A3014 RMK AO2 SLP116 T00940050 402440033 TSNO
cycle: 7

Station Type Date Time Source
KBPI TAF 2019/06/16 06:27 UTC NOAA

TAF KBPI 160525Z 1606/1706 33010KT P6SM SCT080
FM160800 VRB06KT P6SM FEW080
FM161700 24008KT P6SM FEW080
FM162000 28012G18KT P6SM FEW080 SCT110
FM170200 33010KT P6SM BKN120

Example: see airport list